Time;durP1;ratioP1;P1;durP2;ratioP2;P2;SDS_P1;SDS_P2;PMS_P1;PMS_P2;Temp;Humidity;BMP_temperature;BMP_pressure;BME280_temperature;BME280_humidity;BME280_pressure;Samples;Min_cycle;Max_cycle;Signal;HPM_P1;HPM_P2
2023/06/04 00:00:45;;;;;;;6.22;2.92;;;;;;;7.60;84.07;98640.25;2613386;28;20048;-83
2023/06/04 00:02:20;;;;;;;3.50;2.20;;;;;;;7.47;86.75;98643.03;2615817;28;20058;-82
2023/06/04 00:03:36;;;;;;;5.75;2.13;;;;;;;7.47;85.13;98644.75;2612609;28;20048;-82
2023/06/04 00:04:51;;;;;;;4.30;1.98;;;;;;;7.48;83.96;98642.13;2612467;28;20048;-82
2023/06/04 00:06:10;;;;;;;3.67;2.10;;;;;;;7.59;82.76;98642.00;2615354;28;20147;-82
2023/06/04 00:07:26;;;;;;;3.97;2.40;;;;;;;7.46;82.48;98641.31;2615182;28;20049;-82
2023/06/04 00:08:41;;;;;;;3.95;2.30;;;;;;;7.43;83.33;98643.06;2613498;28;20087;-82
2023/06/04 00:09:57;;;;;;;3.33;2.08;;;;;;;7.50;81.63;98642.13;2612840;28;20066;-83
2023/06/04 00:11:12;;;;;;;5.95;2.45;;;;;;;7.51;81.04;98645.59;2612335;28;20060;-83
2023/06/04 00:12:28;;;;;;;3.95;2.17;;;;;;;7.53;80.64;98641.22;2613902;28;20059;-83
2023/06/04 00:13:44;;;;;;;4.47;2.08;;;;;;;7.62;79.79;98646.31;2613892;28;20574;-84
2023/06/04 00:15:00;;;;;;;3.53;2.20;;;;;;;7.55;79.46;98648.13;2613180;28;20041;-82
2023/06/04 00:16:15;;;;;;;4.47;2.40;;;;;;;7.70;80.04;98646.22;2615527;28;20041;-82
2023/06/04 00:17:31;;;;;;;4.07;2.20;;;;;;;7.71;78.79;98650.53;2614922;28;20100;-82
2023/06/04 00:18:46;;;;;;;4.45;1.95;;;;;;;7.80;78.34;98649.56;2614097;28;20216;-83
2023/06/04 00:20:03;;;;;;;4.03;2.05;;;;;;;7.81;78.91;98643.47;2615550;28;20045;-83
2023/06/04 00:21:18;;;;;;;3.22;2.00;;;;;;;7.73;78.02;98641.84;2613599;28;20106;-81
2023/06/04 00:22:34;;;;;;;3.63;2.00;;;;;;;7.77;78.13;98640.06;2612539;28;20049;-82
2023/06/04 00:23:49;;;;;;;4.13;2.00;;;;;;;7.51;79.98;98646.47;2613632;28;20071;-83
2023/06/04 00:25:05;;;;;;;2.95;2.10;;;;;;;7.64;78.41;98639.34;2613509;28;20091;-82
2023/06/04 00:26:21;;;;;;;2.88;1.90;;;;;;;7.62;78.43;98641.09;2602265;28;20041;-82
2023/06/04 00:27:37;;;;;;;3.28;2.08;;;;;;;7.71;78.10;98638.38;2607125;28;20052;-82
2023/06/04 00:28:54;;;;;;;6.50;2.28;;;;;;;7.72;78.63;98632.28;2614219;28;20051;-81
2023/06/04 00:30:10;;;;;;;2.92;2.10;;;;;;;7.70;79.57;98639.28;2614825;28;20049;-82
2023/06/04 00:31:26;;;;;;;4.20;2.20;;;;;;;7.56;78.62;98630.78;2614759;28;20087;-82
2023/06/04 00:32:42;;;;;;;3.97;2.28;;;;;;;7.44;79.78;98629.16;2611738;28;20420;-82
2023/06/04 00:33:57;;;;;;;3.53;1.95;;;;;;;7.51;79.55;98629.94;2614322;28;20113;-82
2023/06/04 00:35:13;;;;;;;3.92;2.15;;;;;;;7.46;79.57;98636.09;2612719;28;20045;-82
2023/06/04 00:36:29;;;;;;;3.08;2.20;;;;;;;7.48;81.02;98633.47;2614799;28;20411;-83
2023/06/04 00:37:44;;;;;;;5.57;2.22;;;;;;;7.43;80.20;98640.47;2614613;28;20052;-83
2023/06/04 00:39:00;;;;;;;3.65;1.92;;;;;;;7.44;81.41;98634.38;2615162;28;20052;-83
2023/06/04 00:40:15;;;;;;;6.72;2.40;;;;;;;7.43;80.62;98638.75;2613829;28;20124;-83
2023/06/04 00:41:31;;;;;;;5.25;2.28;;;;;;;7.41;80.43;98637.03;2614750;28;20179;-81
2023/06/04 00:42:46;;;;;;;6.03;2.13;;;;;;;7.32;83.03;98638.84;2612707;28;20105;-82
2023/06/04 00:44:06;;;;;;;3.25;2.10;;;;;;;7.31;81.41;98642.34;2611746;28;20759;-82
2023/06/04 00:45:25;;;;;;;3.35;2.38;;;;;;;7.32;83.68;98623.22;2612534;28;20055;-82
2023/06/04 00:46:41;;;;;;;4.40;2.30;;;;;;;7.27;81.67;98632.84;2611966;28;20119;-81
2023/06/04 00:47:56;;;;;;;5.15;2.20;;;;;;;7.27;82.95;98630.22;2611744;28;20147;-82
2023/06/04 00:49:15;;;;;;;5.80;2.63;;;;;;;7.18;82.75;98633.81;2615786;28;20052;-83
2023/06/04 00:50:38;;;;;;;4.78;2.53;;;;;;;7.17;85.22;98632.09;2610481;28;20480;-81
2023/06/04 00:51:57;;;;;;;3.92;2.50;;;;;;;7.05;86.98;98640.03;2604107;28;20049;-83
2023/06/04 00:53:13;;;;;;;5.32;2.28;;;;;;;6.87;88.59;98636.75;2613699;28;20595;-83
2023/06/04 00:54:32;;;;;;;4.93;2.90;;;;;;;6.87;91.57;98630.66;2619708;28;20044;-82
2023/06/04 00:55:48;;;;;;;2.90;2.05;;;;;;;6.54;93.27;98638.75;2619034;28;20075;-82
2023/06/04 00:57:09;;;;;;;5.20;2.22;;;;;;;6.75;90.65;98635.09;2615622;28;20048;-81
2023/06/04 00:58:25;;;;;;;3.85;2.10;;;;;;;6.76;89.65;98638.56;2614573;28;20080;-82
2023/06/04 00:59:43;;;;;;;4.07;2.47;;;;;;;6.41;91.75;98632.81;2615633;28;20121;-83
2023/06/04 01:01:04;;;;;;;3.78;2.03;;;;;;;6.50;90.46;98631.84;2616298;28;20053;-82
2023/06/04 01:02:22;;;;;;;5.90;2.20;;;;;;;6.61;89.79;98640.44;2613390;28;20106;-83
2023/06/04 01:03:45;;;;;;;4.40;2.33;;;;;;;6.59;89.87;98630.91;2612413;28;20690;-82
2023/06/04 01:05:29;;;;;;;4.93;2.50;;;;;;;6.67;88.67;98628.25;2612670;28;20079;-82
2023/06/04 01:06:50;;;;;;;5.00;2.38;;;;;;;6.68;88.69;98623.03;2611597;28;20079;-84
2023/06/04 01:08:08;;;;;;;3.80;2.30;;;;;;;6.69;88.65;98637.78;2614906;28;21066;-83
2023/06/04 01:09:27;;;;;;;6.05;2.20;;;;;;;6.59;92.40;98633.50;2613936;28;20053;-82
2023/06/04 01:10:53;;;;;;;7.10;2.30;;;;;;;6.59;92.06;98634.41;2613903;28;20052;-82
2023/06/04 01:12:10;;;;;;;4.88;1.90;;;;;;;6.59;94.34;98633.50;2611517;28;20519;-84
2023/06/04 01:13:27;;;;;;;3.92;2.40;;;;;;;6.39;93.61;98633.69;2613280;28;20488;-83
2023/06/04 01:14:43;;;;;;;3.33;2.10;;;;;;;6.48;95.10;98629.25;2614185;28;20199;-83
2023/06/04 01:15:59;;;;;;;3.67;2.17;;;;;;;6.36;94.80;98632.00;2614877;28;20512;-82
2023/06/04 01:17:19;;;;;;;3.08;2.20;;;;;;;6.18;95.62;98627.78;2613383;28;20115;-83
2023/06/04 01:18:37;;;;;;;4.78;2.40;;;;;;;6.32;96.91;98628.53;2612148;28;20052;-82
2023/06/04 01:20:15;;;;;;;4.40;2.25;;;;;;;6.36;98.12;98626.78;2611484;28;20045;-82
2023/06/04 01:21:38;;;;;;;3.17;1.95;;;;;;;6.50;95.93;98626.66;2614852;28;20072;-82
2023/06/04 01:22:56;;;;;;;4.38;1.95;;;;;;;6.51;95.04;98628.38;2611188;28;20091;-83
2023/06/04 01:24:13;;;;;;;5.03;2.13;;;;;;;6.54;93.03;98627.50;2612213;28;20059;-82
2023/06/04 01:25:35;;;;;;;3.83;1.95;;;;;;;6.53;91.91;98626.63;2613294;28;20056;-83
2023/06/04 01:26:52;;;;;;;2.33;1.75;;;;;;;6.40;91.93;98631.06;2613577;28;20194;-82
2023/06/04 01:28:12;;;;;;;4.57;2.20;;;;;;;6.54;90.03;98627.50;2611315;28;20126;-83
2023/06/04 01:29:30;;;;;;;3.88;2.00;;;;;;;6.50;90.63;98626.66;2612764;28;20128;-83
2023/06/04 01:30:47;;;;;;;4.00;1.95;;;;;;;6.41;90.22;98624.13;2613242;28;20053;-83
2023/06/04 01:32:03;;;;;;;4.18;2.20;;;;;;;6.45;90.01;98628.44;2615020;28;20053;-82
2023/06/04 01:33:20;;;;;;;4.32;2.28;;;;;;;6.40;91.54;98620.69;2613295;28;20412;-82
2023/06/04 01:34:48;;;;;;;3.05;2.05;;;;;;;6.23;93.36;98623.41;2613382;28;20171;-82
2023/06/04 01:36:04;;;;;;;4.57;2.45;;;;;;;6.29;92.61;98619.91;2602380;28;20052;-82
2023/06/04 01:37:19;;;;;;;4.15;2.17;;;;;;;6.35;91.49;98623.31;2605118;28;20045;-82
2023/06/04 01:38:35;;;;;;;4.20;2.78;;;;;;;6.25;94.17;98618.19;2613526;28;20666;-82
2023/06/04 01:39:51;;;;;;;3.85;2.40;;;;;;;6.30;93.77;98625.09;2612017;28;20048;-82
2023/06/04 01:41:07;;;;;;;4.45;2.22;;;;;;;6.20;92.04;98624.28;2600551;28;20041;-82
2023/06/04 01:42:22;;;;;;;3.83;1.98;;;;;;;6.12;94.05;98627.81;2606819;28;20455;-83
2023/06/04 01:43:38;;;;;;;5.05;2.53;;;;;;;6.25;91.55;98621.66;2614041;28;20515;-84
2023/06/04 01:44:53;;;;;;;4.78;2.47;;;;;;;6.22;91.85;98624.28;2614019;28;20041;-82
2023/06/04 01:46:09;;;;;;;2.38;2.00;;;;;;;6.24;92.13;98619.91;2611572;28;20045;-83
2023/06/04 01:47:25;;;;;;;4.38;2.47;;;;;;;6.34;91.28;98623.31;2614034;28;20098;-82
2023/06/04 01:48:40;;;;;;;4.03;2.20;;;;;;;6.34;93.02;98616.38;2602798;28;20535;-82
2023/06/04 01:49:56;;;;;;;4.03;2.25;;;;;;;6.35;92.05;98617.22;2608082;28;20080;-82
2023/06/04 01:51:12;;;;;;;4.93;2.22;;;;;;;6.26;90.43;98615.56;2613509;28;20068;-82
2023/06/04 01:52:27;;;;;;;4.90;2.03;;;;;;;6.31;90.66;98619.00;2613115;28;20118;-82
2023/06/04 01:53:42;;;;;;;3.30;2.17;;;;;;;6.34;90.42;98624.19;2612207;28;20420;-81
2023/06/04 01:54:59;;;;;;;4.55;2.20;;;;;;;6.29;89.66;98615.56;2613109;28;20071;-82
2023/06/04 01:56:15;;;;;;;3.88;2.20;;;;;;;6.31;89.72;98620.75;2611830;28;20099;-82
2023/06/04 01:57:31;;;;;;;3.20;1.80;;;;;;;6.24;89.81;98616.47;2615193;28;20051;-83
2023/06/04 01:58:47;;;;;;;3.10;2.10;;;;;;;6.31;89.04;98619.00;2612992;28;20499;-82
2023/06/04 02:00:07;;;;;;;3.95;2.40;;;;;;;6.29;89.93;98617.28;2613650;28;20060;-82
2023/06/04 02:01:23;;;;;;;3.65;2.20;;;;;;;6.18;89.19;98617.38;2600665;28;20094;-82
2023/06/04 02:02:41;;;;;;;3.25;2.05;;;;;;;6.27;88.31;98621.66;2607817;28;20659;-82
2023/06/04 02:03:56;;;;;;;2.97;2.05;;;;;;;6.32;88.12;98623.34;2613563;28;20041;-82
2023/06/04 02:05:12;;;;;;;2.90;1.90;;;;;;;6.26;87.64;98623.38;2613927;28;20049;-82
2023/06/04 02:06:29;;;;;;;5.20;2.20;;;;;;;6.15;88.27;98620.00;2611833;28;20055;-82
2023/06/04 02:07:47;;;;;;;3.88;2.33;;;;;;;6.10;89.21;98622.63;2612167;28;20496;-83
2023/06/04 02:09:03;;;;;;;4.30;1.92;;;;;;;6.02;89.31;98625.28;2613050;28;20514;-82
2023/06/04 02:10:20;;;;;;;3.33;1.80;;;;;;;6.05;88.98;98625.25;2613348;28;20044;-82
2023/06/04 02:11:35;;;;;;;3.97;2.30;;;;;;;5.96;90.31;98625.28;2614000;28;20540;-82
2023/06/04 02:12:55;;;;;;;3.65;2.20;;;;;;;5.94;91.04;98619.25;2613516;28;20420;-82
2023/06/04 02:14:10;;;;;;;4.85;2.13;;;;;;;5.96;90.79;98622.69;2613391;28;20098;-82
2023/06/04 02:15:27;;;;;;;5.20;2.00;;;;;;;6.06;89.12;98626.09;2613955;28;20083;-82
2023/06/04 02:16:42;;;;;;;4.35;2.08;;;;;;;5.96;90.40;98622.69;2614408;28;20049;-83
2023/06/04 02:18:15;;;;;;;3.30;2.10;;;;;;;5.87;90.64;98625.38;2611323;28;20256;-82
2023/06/04 02:19:33;;;;;;;4.13;1.90;;;;;;;5.93;90.37;98628.75;2612965;28;20068;-82
2023/06/04 02:20:49;;;;;;;2.90;2.10;;;;;;;5.92;90.03;98623.59;2613625;28;20546;-82
2023/06/04 02:22:06;;;;;;;3.28;1.77;;;;;;;6.05;88.67;98626.97;2613590;28;20053;-82
2023/06/04 02:23:22;;;;;;;3.55;1.95;;;;;;;6.00;87.99;98624.38;2613263;28;20077;-82
2023/06/04 02:24:38;;;;;;;3.60;1.98;;;;;;;6.03;88.14;98624.41;2612358;28;20440;-82
2023/06/04 02:25:54;;;;;;;3.72;2.00;;;;;;;5.75;92.06;98627.16;2613274;28;20594;-82
2023/06/04 02:27:11;;;;;;;4.35;2.08;;;;;;;5.69;91.89;98632.34;2615339;28;20099;-82
2023/06/04 02:28:26;;;;;;;4.78;2.08;;;;;;;5.71;92.18;98627.16;2614576;28;20048;-82
2023/06/04 02:29:42;;;;;;;3.70;1.92;;;;;;;5.74;93.53;98628.03;2613844;28;20135;-82
2023/06/04 02:30:57;;;;;;;4.47;2.15;;;;;;;5.76;93.41;98633.19;2615156;28;20067;-83
2023/06/04 02:32:13;;;;;;;5.45;2.03;;;;;;;5.83;92.32;98628.81;2613133;28;20073;-82
2023/06/04 02:33:29;;;;;;;4.28;2.13;;;;;;;5.89;91.64;98628.81;2604779;28;20521;-82
2023/06/04 02:34:44;;;;;;;2.85;1.73;;;;;;;5.79;91.86;98628.84;2609307;28;20059;-83
2023/06/04 02:36:00;;;;;;;4.78;2.28;;;;;;;5.87;90.99;98625.38;2615754;28;20580;-83
2023/06/04 02:37:16;;;;;;;4.05;2.05;;;;;;;5.80;90.41;98638.38;2614852;28;20045;-82
2023/06/04 02:38:32;;;;;;;3.15;2.25;;;;;;;5.78;90.40;98634.91;2615445;28;20080;-82
2023/06/04 02:39:47;;;;;;;3.33;2.00;;;;;;;5.87;90.49;98636.59;2614199;28;20488;-82
2023/06/04 02:41:03;;;;;;;6.45;2.30;;;;;;;5.85;92.16;98634.88;2614197;28;20057;-82
2023/06/04 02:42:18;;;;;;;4.43;2.13;;;;;;;5.72;93.57;98641.88;2613633;28;20585;-82
2023/06/04 02:43:34;;;;;;;4.72;2.50;;;;;;;5.55;94.78;98639.34;2613338;28;21081;-82
2023/06/04 02:44:49;;;;;;;3.55;2.03;;;;;;;5.44;96.34;98644.59;2616530;28;20075;-83
2023/06/04 02:46:06;;;;;;;3.63;2.25;;;;;;;5.33;98.18;98640.31;2615514;28;20069;-82
2023/06/04 02:47:21;;;;;;;4.50;2.00;;;;;;;5.44;96.75;98636.81;2617516;28;20052;-83
2023/06/04 02:48:37;;;;;;;3.08;1.85;;;;;;;5.55;94.79;98642.84;2617861;28;20445;-83
2023/06/04 02:49:52;;;;;;;5.63;2.22;;;;;;;5.50;94.70;98645.44;2617456;28;20072;-83
2023/06/04 02:51:10;;;;;;;3.92;2.00;;;;;;;5.62;93.82;98646.25;2616539;28;20068;-83
2023/06/04 02:52:26;;;;;;;3.45;2.10;;;;;;;5.54;92.96;98645.41;2616457;28;20056;-83
2023/06/04 02:53:41;;;;;;;3.60;1.90;;;;;;;5.44;94.84;98653.25;2614390;28;20144;-83
2023/06/04 02:54:57;;;;;;;2.83;1.67;;;;;;;5.39;96.04;98646.38;2615035;28;20131;-83
2023/06/04 02:56:12;;;;;;;4.35;2.22;;;;;;;5.31;96.21;98649.00;2613506;28;20462;-83
2023/06/04 02:57:28;;;;;;;3.60;2.30;;;;;;;5.45;93.79;98646.31;2603948;28;20060;-82
2023/06/04 02:58:55;;;;;;;4.97;2.08;;;;;;;5.51;94.28;98654.97;2608342;28;20114;-83
2023/06/04 03:00:14;;;;;;;4.35;1.85;;;;;;;5.53;92.63;98656.69;2615877;28;20053;-83
2023/06/04 03:01:30;;;;;;;3.20;2.00;;;;;;;5.30;94.30;98655.03;2615148;28;20484;-83
2023/06/04 03:02:47;;;;;;;2.42;1.70;;;;;;;5.25;94.60;98655.06;2614991;28;20055;-82
2023/06/04 03:04:04;;;;;;;3.92;2.13;;;;;;;5.24;95.42;98661.13;2615343;28;20492;-82
2023/06/04 03:05:20;;;;;;;9.05;2.10;;;;;;;5.17;95.80;98660.28;2613333;28;20053;-82
2023/06/04 03:06:39;;;;;;;3.47;1.98;;;;;;;5.11;98.26;98659.44;2614591;28;20064;-83
2023/06/04 03:07:57;;;;;;;4.38;2.00;;;;;;;5.16;99.15;98661.13;2613057;28;20147;-83
2023/06/04 03:09:13;;;;;;;4.75;2.03;;;;;;;5.18;98.09;98662.00;2615276;28;20053;-83
2023/06/04 03:10:29;;;;;;;3.67;2.08;;;;;;;5.33;97.51;98668.03;2615193;28;20488;-82
2023/06/04 03:11:45;;;;;;;3.40;1.98;;;;;;;5.33;96.11;98668.88;2614944;28;20049;-82
2023/06/04 03:13:01;;;;;;;3.33;2.08;;;;;;;5.41;96.77;98668.84;2613363;28;20558;-83
2023/06/04 03:14:17;;;;;;;3.47;1.83;;;;;;;5.44;96.55;98667.97;2615180;28;20052;-83
2023/06/04 03:15:33;;;;;;;3.53;2.05;;;;;;;5.49;96.41;98672.28;2612703;28;20413;-83
2023/06/04 03:16:51;;;;;;;3.42;2.00;;;;;;;5.48;96.01;98667.97;2614897;28;20071;-83
2023/06/04 03:18:06;;;;;;;4.07;2.40;;;;;;;5.55;96.81;98662.72;2615459;28;20048;-83
2023/06/04 03:19:22;;;;;;;4.53;2.13;;;;;;;5.54;100.00;98668.78;2615446;28;20072;-83
2023/06/04 03:20:38;;;;;;;4.45;2.05;;;;;;;5.58;100.00;98662.72;2614099;28;20049;-83
2023/06/04 03:21:54;;;;;;;6.43;2.35;;;;;;;5.63;98.16;98666.16;2612982;28;20045;-83
2023/06/04 03:23:09;;;;;;;4.72;2.00;;;;;;;5.58;100.00;98678.28;2613392;28;20415;-83
2023/06/04 03:24:25;;;;;;;4.18;2.53;;;;;;;5.62;100.00;98672.25;2613651;28;20060;-83
2023/06/04 03:25:40;;;;;;;4.03;2.28;;;;;;;5.63;100.00;98667.03;2614132;28;20048;-83
2023/06/04 03:26:56;;;;;;;3.42;2.10;;;;;;;5.59;100.00;98670.50;2614874;28;20305;-83
2023/06/04 03:28:11;;;;;;;3.55;2.17;;;;;;;5.57;100.00;98676.56;2615285;28;20044;-83
2023/06/04 03:29:27;;;;;;;3.97;2.17;;;;;;;5.65;100.00;98680.84;2615949;28;20052;-83
2023/06/04 03:30:43;;;;;;;4.38;2.35;;;;;;;5.69;99.86;98676.53;2613371;28;20049;-83
2023/06/04 03:31:58;;;;;;;2.72;2.13;;;;;;;5.68;99.81;98680.00;2614013;28;20083;-83
2023/06/04 03:33:14;;;;;;;5.05;2.22;;;;;;;5.55;100.00;98686.97;2614446;28;20106;-83
2023/06/04 03:34:33;;;;;;;3.95;2.08;;;;;;;5.61;100.00;98691.28;2615205;28;20048;-83
2023/06/04 03:35:49;;;;;;;4.22;2.08;;;;;;;5.70;99.58;98693.00;2614552;28;20078;-83
2023/06/04 03:37:05;;;;;;;5.00;2.05;;;;;;;5.75;98.31;98684.31;2612507;28;20127;-83
2023/06/04 03:38:20;;;;;;;4.07;2.30;;;;;;;5.74;99.21;98684.31;2612767;28;20092;-83
2023/06/04 03:39:36;;;;;;;3.22;1.92;;;;;;;5.79;98.31;98680.81;2602826;28;20049;-83
2023/06/04 03:40:54;;;;;;;2.58;1.80;;;;;;;5.84;98.54;98682.50;2608583;28;20135;-83
2023/06/04 03:42:10;;;;;;;4.60;2.00;;;;;;;5.85;97.76;98684.25;2603027;28;20045;-83
2023/06/04 03:43:25;;;;;;;3.03;2.00;;;;;;;5.87;97.63;98687.72;2607718;28;20131;-83
2023/06/04 03:44:41;;;;;;;3.67;2.10;;;;;;;5.86;96.83;98688.56;2614049;28;20137;-83
2023/06/04 03:45:56;;;;;;;3.00;1.90;;;;;;;5.92;96.50;98685.94;2601903;28;20057;-83
2023/06/04 03:47:12;;;;;;;6.45;2.20;;;;;;;5.94;97.14;98684.22;2607596;28;21064;-83
2023/06/04 03:48:28;;;;;;;3.22;1.75;;;;;;;5.94;99.00;98694.59;2615029;28;20471;-83
2023/06/04 03:49:43;;;;;;;4.97;1.85;;;;;;;5.99;98.18;98687.63;2613874;28;20064;-83
2023/06/04 03:50:59;;;;;;;4.60;2.10;;;;;;;5.94;100.00;98687.69;2611997;28;20077;-83
2023/06/04 03:52:14;;;;;;;3.30;1.92;;;;;;;5.97;97.92;98696.31;2612907;28;20049;-84
2023/06/04 03:53:30;;;;;;;4.28;2.10;;;;;;;6.02;100.00;98689.38;2603359;28;20084;-83
2023/06/04 03:54:45;;;;;;;5.20;2.08;;;;;;;5.93;100.00;98691.13;2607102;28;20052;-83
2023/06/04 03:56:01;;;;;;;3.83;2.08;;;;;;;5.73;100.00;98680.84;2613652;28;20067;-83
2023/06/04 03:57:17;;;;;;;3.13;1.90;;;;;;;5.75;100.00;98692.09;2613972;28;20045;-83
2023/06/04 03:58:34;;;;;;;3.05;1.67;;;;;;;5.65;100.00;98691.25;2614720;28;20064;-82
2023/06/04 03:59:50;;;;;;;4.35;2.13;;;;;;;5.80;100.00;98685.13;2614312;28;20056;-83
2023/06/04 04:01:06;;;;;;;4.05;1.95;;;;;;;5.77;100.00;98692.06;2614846;28;20098;-83
2023/06/04 04:02:22;;;;;;;3.88;2.17;;;;;;;5.76;100.00;98690.34;2612597;28;20051;-83
2023/06/04 04:03:37;;;;;;;4.95;2.38;;;;;;;5.71;100.00;98692.13;2614629;28;20903;-83
2023/06/04 04:04:54;;;;;;;4.88;2.10;;;;;;;5.85;100.00;98687.72;2612424;28;20048;-82
2023/06/04 04:06:10;;;;;;;3.50;2.17;;;;;;;5.99;100.00;98690.22;2613518;28;20135;-83
2023/06/04 04:07:25;;;;;;;7.60;2.22;;;;;;;6.04;100.00;98687.66;2613929;28;20131;-83
2023/06/04 04:08:44;;;;;;;3.38;2.08;;;;;;;6.14;100.00;98686.72;2612529;28;20052;-82
2023/06/04 04:10:00;;;;;;;3.55;2.20;;;;;;;6.19;100.00;98687.53;2612349;28;20053;-82
2023/06/04 04:11:16;;;;;;;3.63;2.13;;;;;;;6.26;100.00;98690.97;2614126;28;20155;-82
2023/06/04 04:12:31;;;;;;;3.72;2.05;;;;;;;6.28;100.00;98681.41;2604606;28;20049;-82
2023/06/04 04:13:48;;;;;;;5.18;2.20;;;;;;;6.18;100.00;98688.41;2606371;28;20059;-82
2023/06/04 04:15:04;;;;;;;4.68;2.40;;;;;;;6.32;100.00;98688.34;2613149;28;20102;-83
2023/06/04 04:16:20;;;;;;;4.75;2.20;;;;;;;6.10;100.00;98686.75;2613223;28;20083;-82
2023/06/04 04:17:35;;;;;;;4.00;2.10;;;;;;;6.22;100.00;98689.28;2612405;28;20102;-82
2023/06/04 04:18:51;;;;;;;3.63;2.40;;;;;;;6.28;100.00;98694.41;2611902;28;20069;-82
2023/06/04 04:20:07;;;;;;;4.78;2.40;;;;;;;6.50;100.00;98696.88;2613255;28;20049;-82
2023/06/04 04:21:23;;;;;;;3.40;2.05;;;;;;;6.44;100.00;98699.53;2611675;28;20058;-82
2023/06/04 04:22:42;;;;;;;4.28;2.17;;;;;;;6.33;100.00;98686.59;2613229;28;20543;-82
2023/06/04 04:23:57;;;;;;;3.22;2.28;;;;;;;6.40;100.00;98693.50;2612884;28;20045;-82
2023/06/04 04:25:13;;;;;;;3.83;2.10;;;;;;;6.38;100.00;98689.16;2612079;28;20162;-81
2023/06/04 04:26:28;;;;;;;4.07;2.22;;;;;;;6.40;100.00;98692.63;2612492;28;20052;-82
2023/06/04 04:27:44;;;;;;;4.95;2.20;;;;;;;6.48;100.00;98690.84;2614433;28;20361;-81
2023/06/04 04:28:59;;;;;;;4.97;2.40;;;;;;;6.68;100.00;98692.41;2614434;28;20053;-83
2023/06/04 04:30:17;;;;;;;2.53;1.95;;;;;;;6.61;100.00;98694.19;2613470;28;20461;-80
2023/06/04 04:31:36;;;;;;;3.65;2.00;;;;;;;6.75;100.00;98694.94;2611851;28;20496;-81
2023/06/04 04:32:51;;;;;;;2.38;1.73;;;;;;;6.60;100.00;98692.47;2612475;28;20076;-81
2023/06/04 04:34:08;;;;;;;3.95;2.08;;;;;;;6.61;100.00;98694.19;2614996;28;20076;-81
2023/06/04 04:35:23;;;;;;;4.03;2.08;;;;;;;6.60;100.00;98689.88;2612174;28;20044;-81
2023/06/04 04:36:40;;;;;;;7.95;2.30;;;;;;;6.58;100.00;98700.31;2614218;28;20519;-81
2023/06/04 04:37:57;;;;;;;3.47;2.15;;;;;;;6.66;100.00;98697.66;2613743;28;20467;-81
2023/06/04 04:39:12;;;;;;;3.38;2.10;;;;;;;6.85;100.00;98700.97;2612442;28;20082;-80
2023/06/04 04:40:27;;;;;;;3.25;1.80;;;;;;;6.91;100.00;98697.41;2613869;28;20955;-81
2023/06/04 04:41:43;;;;;;;2.28;1.63;;;;;;;6.75;100.00;98702.75;2611983;28;20497;-81
2023/06/04 04:42:59;;;;;;;3.70;2.20;;;;;;;7.07;100.00;98696.41;2614493;28;20052;-81
2023/06/04 04:44:14;;;;;;;4.40;2.10;;;;;;;7.14;100.00;98699.81;2611558;28;20044;-82
2023/06/04 04:45:30;;;;;;;3.42;2.00;;;;;;;7.15;100.00;98701.56;2613933;28;20109;-81
2023/06/04 04:46:47;;;;;;;6.65;2.05;;;;;;;7.19;100.00;98699.75;2614097;28;20098;-81
2023/06/04 04:48:03;;;;;;;3.72;2.10;;;;;;;7.34;100.00;98698.75;2611636;28;20060;-81
2023/06/04 04:49:18;;;;;;;2.90;1.73;;;;;;;7.16;100.00;98699.78;2612390;28;20496;-81
2023/06/04 04:50:34;;;;;;;3.78;2.00;;;;;;;7.20;100.00;98698.91;2602303;28;20500;-81
2023/06/04 04:51:49;;;;;;;3.10;1.80;;;;;;;7.39;100.00;98702.16;2606803;28;20068;-81
2023/06/04 04:53:05;;;;;;;3.65;2.15;;;;;;;7.47;100.00;98704.66;2611837;28;20415;-82
2023/06/04 04:54:21;;;;;;;5.00;2.13;;;;;;;7.22;100.00;98702.34;2613768;28;20044;-81
2023/06/04 04:55:36;;;;;;;5.90;2.30;;;;;;;7.07;100.00;98695.53;2611404;28;20057;-81
2023/06/04 04:56:52;;;;;;;3.22;1.85;;;;;;;6.97;100.00;98701.69;2613464;28;20048;-81
2023/06/04 04:58:07;;;;;;;3.10;2.05;;;;;;;6.78;100.00;98694.94;2613914;28;20044;-82
2023/06/04 04:59:23;;;;;;;4.53;2.30;;;;;;;6.83;100.00;98701.84;2613194;28;20053;-82
2023/06/04 05:00:39;;;;;;;4.28;2.10;;;;;;;6.82;100.00;98695.75;2613183;28;20076;-81
2023/06/04 05:01:54;;;;;;;3.75;2.28;;;;;;;7.00;100.00;98702.53;2611638;28;20102;-81
2023/06/04 05:03:10;;;;;;;2.90;2.05;;;;;;;7.25;100.00;98704.03;2613322;28;20056;-81
2023/06/04 05:04:25;;;;;;;3.08;2.03;;;;;;;7.46;100.00;98700.34;2613486;28;20508;-81
2023/06/04 05:05:41;;;;;;;4.90;2.35;;;;;;;7.47;100.00;98702.94;2613735;28;20131;-81
2023/06/04 05:06:57;;;;;;;3.00;1.88;;;;;;;7.86;100.00;98696.41;2613871;28;20065;-81
2023/06/04 05:08:12;;;;;;;3.05;2.00;;;;;;;8.00;100.00;98704.03;2614220;28;20476;-81
2023/06/04 05:09:28;;;;;;;4.95;2.00;;;;;;;8.30;100.00;98696.66;2612843;28;20060;-80
2023/06/04 05:10:43;;;;;;;3.00;1.77;;;;;;;8.31;100.00;98701.88;2613441;28;20079;-81
2023/06/04 05:11:59;;;;;;;3.13;2.05;;;;;;;8.41;100.00;98691.31;2612009;28;20064;-82
2023/06/04 05:13:15;;;;;;;3.17;1.98;;;;;;;8.52;100.00;98702.47;2613999;28;20045;-81
2023/06/04 05:14:31;;;;;;;2.88;2.00;;;;;;;8.47;100.00;98699.91;2612031;28;20082;-82
2023/06/04 05:15:47;;;;;;;3.78;2.00;;;;;;;8.41;100.00;98702.59;2612020;28;20115;-80
2023/06/04 05:17:03;;;;;;;3.70;1.95;;;;;;;8.38;100.00;98710.47;2613243;28;20044;-80
2023/06/04 05:18:28;;;;;;;3.15;2.13;;;;;;;8.24;100.00;98697.66;2614587;28;20548;-80
2023/06/04 05:19:44;;;;;;;3.25;2.00;;;;;;;8.31;100.00;98704.47;2612239;28;20516;-80
2023/06/04 05:21:02;;;;;;;2.53;1.80;;;;;;;8.29;100.00;98708.00;2612652;28;20048;-80
2023/06/04 05:22:20;;;;;;;4.13;2.00;;;;;;;8.18;100.00;98705.53;2611773;28;20130;-80
2023/06/04 05:23:36;;;;;;;6.18;2.15;;;;;;;8.15;100.00;98702.97;2612210;28;20040;-80
2023/06/04 05:24:52;;;;;;;4.20;2.35;;;;;;;8.18;100.00;98703.81;2611521;28;20060;-80
2023/06/04 05:26:08;;;;;;;5.03;2.17;;;;;;;8.51;100.00;98702.50;2611747;28;20065;-80
2023/06/04 05:27:23;;;;;;;5.70;1.90;;;;;;;8.55;100.00;98701.56;2614252;28;20080;-80
2023/06/04 05:28:43;;;;;;;3.67;1.92;;;;;;;8.51;100.00;98702.50;2611901;28;20405;-80
2023/06/04 05:29:58;;;;;;;3.28;1.88;;;;;;;8.96;100.00;98704.41;2613645;28;20052;-81
2023/06/04 05:31:15;;;;;;;4.03;2.00;;;;;;;9.25;100.00;98705.63;2612542;28;20053;-78
2023/06/04 05:32:32;;;;;;;4.60;2.60;;;;;;;9.45;95.80;98703.47;2611781;28;20045;-80
2023/06/04 05:33:47;;;;;;;3.85;1.70;;;;;;;9.65;94.54;98704.88;2611305;28;20052;-79
2023/06/04 05:35:04;;;;;;;2.83;1.80;;;;;;;9.19;97.57;98709.22;2613311;28;20501;-80
2023/06/04 05:36:20;;;;;;;4.55;2.13;;;;;;;9.33;98.37;98701.97;2601122;28;20041;-80
2023/06/04 05:37:37;;;;;;;4.80;2.60;;;;;;;9.25;96.14;98706.47;2608135;28;20079;-80
2023/06/04 05:38:56;;;;;;;4.20;2.00;;;;;;;9.31;97.79;98703.75;2612530;28;20060;-80
2023/06/04 05:40:13;;;;;;;2.65;2.00;;;;;;;9.62;93.89;98712.75;2611474;28;20060;-80
2023/06/04 05:41:29;;;;;;;3.50;1.90;;;;;;;9.38;93.05;98714.97;2613022;28;20106;-80
2023/06/04 05:42:44;;;;;;;4.80;1.90;;;;;;;9.62;94.74;98715.34;2611242;28;20048;-81
2023/06/04 05:44:00;;;;;;;5.72;2.30;;;;;;;9.64;90.59;98715.34;2610709;28;20045;-80
2023/06/04 05:45:15;;;;;;;5.32;2.75;;;;;;;9.73;93.09;98716.00;2611451;28;20131;-80
2023/06/04 05:46:34;;;;;;;2.85;1.85;;;;;;;9.74;93.75;98715.13;2611474;28;20090;-80
2023/06/04 05:47:53;;;;;;;2.97;1.75;;;;;;;9.65;87.66;98714.44;2612090;28;20041;-80
2023/06/04 05:49:08;;;;;;;4.28;1.83;;;;;;;9.82;89.85;98714.97;2612741;28;20052;-81
2023/06/04 05:50:24;;;;;;;3.45;1.90;;;;;;;9.79;89.05;98711.56;2612355;28;20045;-80
2023/06/04 05:51:40;;;;;;;6.38;2.50;;;;;;;9.97;87.66;98713.78;2611352;28;20123;-79
2023/06/04 05:52:56;;;;;;;3.33;2.28;;;;;;;10.28;80.33;98717.50;2611969;28;20048;-80
2023/06/04 05:54:12;;;;;;;2.83;1.70;;;;;;;10.35;82.42;98711.22;2611811;28;20128;-80
2023/06/04 05:55:29;;;;;;;3.10;2.00;;;;;;;10.47;84.71;98706.63;2611371;28;20041;-81
2023/06/04 05:56:44;;;;;;;4.25;2.03;;;;;;;10.74;81.35;98705.97;2601561;28;20508;-80
2023/06/04 05:58:00;;;;;;;3.33;1.88;;;;;;;10.41;81.97;98708.50;2604340;28;20041;-79
2023/06/04 05:59:16;;;;;;;4.07;1.92;;;;;;;10.59;80.18;98715.03;2612661;28;20576;-80
2023/06/04 06:00:31;;;;;;;4.43;2.30;;;;;;;10.66;80.81;98714.91;2611214;28;20048;-80
2023/06/04 06:01:47;;;;;;;3.22;2.30;;;;;;;10.70;78.78;98720.06;2612285;28;20488;-81
2023/06/04 06:03:06;;;;;;;3.22;2.08;;;;;;;10.88;76.25;98716.09;2614397;28;20052;-81
2023/06/04 06:04:21;;;;;;;4.75;1.88;;;;;;;11.00;75.47;98720.19;2613288;28;20053;-81